sensor_id;sensor_type;location;lat;lon;timestamp;pressure;altitude;pressure_sealevel;temperature;humidity
74079;BME280;62437;51.544;-3.276;2023-04-24T00:00:41;100194.85;;;6.58;59.06
74079;BME280;62437;51.544;-3.276;2023-04-24T00:03:09;100205.41;;;5.34;61.81
74079;BME280;62437;51.544;-3.276;2023-04-24T00:05:33;100212.67;;;4.65;63.59
74079;BME280;62437;51.544;-3.276;2023-04-24T00:07:58;100219.38;;;3.73;67.22
74079;BME280;62437;51.544;-3.276;2023-04-24T00:10:24;100217.67;;;4.24;64.79
74079;BME280;62437;51.544;-3.276;2023-04-24T00:12:50;100222.19;;;4.14;66.57
74079;BME280;62437;51.544;-3.276;2023-04-24T00:15:16;100219.28;;;4.90;64.19
74079;BME280;62437;51.544;-3.276;2023-04-24T00:17:41;100221.77;;;4.44;64.43
74079;BME280;62437;51.544;-3.276;2023-04-24T00:20:08;100222.85;;;4.31;65.11
74079;BME280;62437;51.544;-3.276;2023-04-24T00:22:33;100218.96;;;4.50;66.16
74079;BME280;62437;51.544;-3.276;2023-04-24T00:24:59;100223.78;;;3.14;69.53
74079;BME280;62437;51.544;-3.276;2023-04-24T00:27:24;100224.09;;;3.78;68.48
74079;BME280;62437;51.544;-3.276;2023-04-24T00:29:50;100227.82;;;4.03;67.77
74079;BME280;62437;51.544;-3.276;2023-04-24T00:32:16;100229.49;;;2.90;71.11
74079;BME280;62437;51.544;-3.276;2023-04-24T00:34:42;100232.60;;;4.02;67.59
74079;BME280;62437;51.544;-3.276;2023-04-24T00:37:07;100225.43;;;3.70;70.21
74079;BME280;62437;51.544;-3.276;2023-04-24T00:39:33;100226.97;;;2.77;72.66
74079;BME280;62437;51.544;-3.276;2023-04-24T00:41:59;100230.33;;;3.93;68.01
74079;BME280;62437;51.544;-3.276;2023-04-24T00:44:25;100234.35;;;2.76;71.49
74079;BME280;62437;51.544;-3.276;2023-04-24T00:46:51;100232.99;;;4.21;68.09
74079;BME280;62437;51.544;-3.276;2023-04-24T00:49:16;100232.67;;;3.26;70.21
74079;BME280;62437;51.544;-3.276;2023-04-24T00:51:42;100232.17;;;3.27;71.15
74079;BME280;62437;51.544;-3.276;2023-04-24T00:54:08;100231.24;;;3.40;70.32
74079;BME280;62437;51.544;-3.276;2023-04-24T00:56:33;100231.25;;;4.37;67.11
74079;BME280;62437;51.544;-3.276;2023-04-24T00:58:59;100231.12;;;4.48;66.19
74079;BME280;62437;51.544;-3.276;2023-04-24T01:01:26;100227.73;;;4.53;65.28
74079;BME280;62437;51.544;-3.276;2023-04-24T01:03:51;100226.97;;;4.63;64.33
74079;BME280;62437;51.544;-3.276;2023-04-24T01:06:17;100227.66;;;4.84;65.36
74079;BME280;62437;51.544;-3.276;2023-04-24T01:08:43;100230.02;;;4.69;65.22
74079;BME280;62437;51.544;-3.276;2023-04-24T01:11:08;100227.15;;;5.15;62.88
74079;BME280;62437;51.544;-3.276;2023-04-24T01:13:34;100234.05;;;4.66;63.50
74079;BME280;62437;51.544;-3.276;2023-04-24T01:16:00;100231.93;;;5.33;61.77
74079;BME280;62437;51.544;-3.276;2023-04-24T01:18:25;100237.21;;;4.87;63.37
74079;BME280;62437;51.544;-3.276;2023-04-24T01:20:53;100237.03;;;4.73;64.06
74079;BME280;62437;51.544;-3.276;2023-04-24T01:23:17;100235.78;;;4.54;64.67
74079;BME280;62437;51.544;-3.276;2023-04-24T01:25:43;100234.08;;;5.13;60.72
74079;BME280;62437;51.544;-3.276;2023-04-24T01:28:08;100234.70;;;6.02;57.37
74079;BME280;62437;51.544;-3.276;2023-04-24T01:30:35;100234.76;;;5.64;59.98
74079;BME280;62437;51.544;-3.276;2023-04-24T01:33:00;100240.17;;;4.14;65.08
74079;BME280;62437;51.544;-3.276;2023-04-24T01:35:26;100238.62;;;3.92;65.94
74079;BME280;62437;51.544;-3.276;2023-04-24T01:37:51;100233.06;;;4.75;64.32
74079;BME280;62437;51.544;-3.276;2023-04-24T01:40:17;100234.69;;;4.07;65.41
74079;BME280;62437;51.544;-3.276;2023-04-24T01:42:43;100233.99;;;3.42;67.45
74079;BME280;62437;51.544;-3.276;2023-04-24T01:45:11;100238.70;;;3.49;66.86
74079;BME280;62437;51.544;-3.276;2023-04-24T01:47:36;100238.71;;;4.08;66.02
74079;BME280;62437;51.544;-3.276;2023-04-24T01:50:00;100241.77;;;3.77;65.86
74079;BME280;62437;51.544;-3.276;2023-04-24T01:52:26;100247.96;;;3.48;66.73
74079;BME280;62437;51.544;-3.276;2023-04-24T01:54:52;100247.62;;;3.11;67.36
74079;BME280;62437;51.544;-3.276;2023-04-24T01:57:17;100246.72;;;2.75;70.50
74079;BME280;62437;51.544;-3.276;2023-04-24T01:59:44;100245.28;;;2.93;69.11
74079;BME280;62437;51.544;-3.276;2023-04-24T02:02:09;100246.82;;;2.90;69.66
74079;BME280;62437;51.544;-3.276;2023-04-24T02:04:34;100247.60;;;2.61;71.28
74079;BME280;62437;51.544;-3.276;2023-04-24T02:07:00;100248.01;;;2.62;70.48
74079;BME280;62437;51.544;-3.276;2023-04-24T02:09:26;100249.02;;;3.38;70.13
74079;BME280;62437;51.544;-3.276;2023-04-24T02:11:52;100250.24;;;3.05;70.57
74079;BME280;62437;51.544;-3.276;2023-04-24T02:14:18;100255.31;;;2.93;70.95
74079;BME280;62437;51.544;-3.276;2023-04-24T02:16:43;100262.01;;;3.48;70.12
74079;BME280;62437;51.544;-3.276;2023-04-24T02:19:09;100263.82;;;3.26;69.49
74079;BME280;62437;51.544;-3.276;2023-04-24T02:21:35;100265.75;;;4.30;67.14
74079;BME280;62437;51.544;-3.276;2023-04-24T02:24:01;100266.27;;;4.68;66.35
74079;BME280;62437;51.544;-3.276;2023-04-24T02:26:27;100262.94;;;2.70;71.48
74079;BME280;62437;51.544;-3.276;2023-04-24T02:28:53;100261.99;;;2.36;71.63
74079;BME280;62437;51.544;-3.276;2023-04-24T02:31:18;100267.20;;;1.85;73.41
74079;BME280;62437;51.544;-3.276;2023-04-24T02:33:44;100270.37;;;1.94;72.62
74079;BME280;62437;51.544;-3.276;2023-04-24T02:36:09;100272.92;;;2.35;71.87
74079;BME280;62437;51.544;-3.276;2023-04-24T02:38:35;100273.13;;;1.82;73.32
74079;BME280;62437;51.544;-3.276;2023-04-24T02:41:01;100272.42;;;2.21;72.29
74079;BME280;62437;51.544;-3.276;2023-04-24T02:43:27;100273.01;;;2.18;72.00
74079;BME280;62437;51.544;-3.276;2023-04-24T02:45:53;100272.85;;;2.37;72.78
74079;BME280;62437;51.544;-3.276;2023-04-24T02:48:18;100275.50;;;2.66;72.23
74079;BME280;62437;51.544;-3.276;2023-04-24T02:50:44;100273.03;;;2.78;71.63
74079;BME280;62437;51.544;-3.276;2023-04-24T02:53:11;100273.76;;;2.55;72.48
74079;BME280;62437;51.544;-3.276;2023-04-24T02:55:36;100275.17;;;2.27;72.13
74079;BME280;62437;51.544;-3.276;2023-04-24T02:58:01;100273.45;;;2.33;73.00
74079;BME280;62437;51.544;-3.276;2023-04-24T03:00:27;100270.98;;;2.90;71.78
74079;BME280;62437;51.544;-3.276;2023-04-24T03:02:53;100269.18;;;2.43;72.17
74079;BME280;62437;51.544;-3.276;2023-04-24T03:05:19;100267.46;;;2.30;72.26
74079;BME280;62437;51.544;-3.276;2023-04-24T03:07:45;100269.03;;;2.29;72.54
74079;BME280;62437;51.544;-3.276;2023-04-24T03:10:10;100271.91;;;2.57;72.21
74079;BME280;62437;51.544;-3.276;2023-04-24T03:12:36;100270.39;;;2.79;71.59
74079;BME280;62437;51.544;-3.276;2023-04-24T03:15:02;100269.60;;;3.00;70.88
74079;BME280;62437;51.544;-3.276;2023-04-24T03:17:28;100266.46;;;2.78;70.90
74079;BME280;62437;51.544;-3.276;2023-04-24T03:19:54;100265.44;;;2.60;71.35
74079;BME280;62437;51.544;-3.276;2023-04-24T03:22:19;100264.83;;;2.93;71.09
74079;BME280;62437;51.544;-3.276;2023-04-24T03:24:46;100263.67;;;2.90;71.06
74079;BME280;62437;51.544;-3.276;2023-04-24T03:27:11;100266.10;;;2.82;70.09
74079;BME280;62437;51.544;-3.276;2023-04-24T03:29:37;100267.60;;;2.42;70.93
74079;BME280;62437;51.544;-3.276;2023-04-24T03:32:02;100262.07;;;2.59;70.94
74079;BME280;62437;51.544;-3.276;2023-04-24T03:34:28;100262.96;;;2.38;71.01
74079;BME280;62437;51.544;-3.276;2023-04-24T03:36:55;100258.01;;;3.26;69.52
74079;BME280;62437;51.544;-3.276;2023-04-24T03:39:20;100257.67;;;2.52;70.42
74079;BME280;62437;51.544;-3.276;2023-04-24T03:41:45;100256.88;;;2.68;70.11
74079;BME280;62437;51.544;-3.276;2023-04-24T03:44:11;100256.65;;;2.64;70.19
74079;BME280;62437;51.544;-3.276;2023-04-24T03:46:37;100258.34;;;2.25;70.52
74079;BME280;62437;51.544;-3.276;2023-04-24T03:49:03;100257.30;;;2.98;68.58
74079;BME280;62437;51.544;-3.276;2023-04-24T03:51:29;100258.04;;;2.29;69.56
74079;BME280;62437;51.544;-3.276;2023-04-24T03:53:55;100253.43;;;2.27;69.53
74079;BME280;62437;51.544;-3.276;2023-04-24T03:56:20;100248.13;;;2.29;70.18
74079;BME280;62437;51.544;-3.276;2023-04-24T03:58:46;100251.32;;;2.33;70.31
74079;BME280;62437;51.544;-3.276;2023-04-24T04:01:12;100253.06;;;2.24;70.05
74079;BME280;62437;51.544;-3.276;2023-04-24T04:03:37;100259.00;;;2.46;70.14
74079;BME280;62437;51.544;-3.276;2023-04-24T04:06:03;100257.60;;;2.13;70.48
74079;BME280;62437;51.544;-3.276;2023-04-24T04:08:29;100259.39;;;2.03;70.91
74079;BME280;62437;51.544;-3.276;2023-04-24T04:10:55;100257.13;;;1.83;71.64
74079;BME280;62437;51.544;-3.276;2023-04-24T04:13:21;100257.77;;;1.60;72.57
74079;BME280;62437;51.544;-3.276;2023-04-24T04:15:47;100259.20;;;2.10;72.77
74079;BME280;62437;51.544;-3.276;2023-04-24T04:18:12;100262.50;;;1.05;73.43
74079;BME280;62437;51.544;-3.276;2023-04-24T04:20:40;100264.29;;;1.87;72.92
74079;BME280;62437;51.544;-3.276;2023-04-24T04:23:04;100261.30;;;1.85;71.98
74079;BME280;62437;51.544;-3.276;2023-04-24T04:25:29;100262.84;;;1.72;71.70
74079;BME280;62437;51.544;-3.276;2023-04-24T04:27:57;100261.36;;;1.84;71.60
74079;BME280;62437;51.544;-3.276;2023-04-24T04:30:21;100259.06;;;1.90;70.56
74079;BME280;62437;51.544;-3.276;2023-04-24T04:32:47;100255.95;;;2.04;70.99
74079;BME280;62437;51.544;-3.276;2023-04-24T04:35:13;100258.60;;;1.99;70.39
74079;BME280;62437;51.544;-3.276;2023-04-24T04:37:38;100264.07;;;2.24;70.48
74079;BME280;62437;51.544;-3.276;2023-04-24T04:40:05;100276.53;;;1.80;71.24
74079;BME280;62437;51.544;-3.276;2023-04-24T04:42:30;100285.06;;;2.04;71.07
74079;BME280;62437;51.544;-3.276;2023-04-24T04:44:56;100291.22;;;1.91;70.96
74079;BME280;62437;51.544;-3.276;2023-04-24T04:47:22;100295.93;;;1.78;71.13
74079;BME280;62437;51.544;-3.276;2023-04-24T04:49:47;100297.01;;;1.91;71.29
74079;BME280;62437;51.544;-3.276;2023-04-24T04:52:13;100294.82;;;2.20;71.32
74079;BME280;62437;51.544;-3.276;2023-04-24T04:54:39;100294.35;;;1.81;71.52
74079;BME280;62437;51.544;-3.276;2023-04-24T04:57:05;100292.46;;;1.73;71.86
74079;BME280;62437;51.544;-3.276;2023-04-24T04:59:31;100289.87;;;2.22;71.34
74079;BME280;62437;51.544;-3.276;2023-04-24T05:01:56;100290.40;;;1.69;72.23
74079;BME280;62437;51.544;-3.276;2023-04-24T05:04:23;100293.87;;;2.19;71.29
74079;BME280;62437;51.544;-3.276;2023-04-24T05:06:49;100294.40;;;2.41;71.24
74079;BME280;62437;51.544;-3.276;2023-04-24T05:09:14;100294.62;;;2.86;70.15
74079;BME280;62437;51.544;-3.276;2023-04-24T05:11:39;100293.41;;;2.26;70.16
74079;BME280;62437;51.544;-3.276;2023-04-24T05:14:05;100295.92;;;2.25;70.98
74079;BME280;62437;51.544;-3.276;2023-04-24T05:16:32;100296.04;;;2.00;71.12
74079;BME280;62437;51.544;-3.276;2023-04-24T05:18:58;100300.66;;;2.29;71.43
74079;BME280;62437;51.544;-3.276;2023-04-24T05:21:23;100302.21;;;2.09;71.12
74079;BME280;62437;51.544;-3.276;2023-04-24T05:23:49;100302.90;;;2.18;71.58
74079;BME280;62437;51.544;-3.276;2023-04-24T05:26:14;100301.06;;;2.02;70.66
74079;BME280;62437;51.544;-3.276;2023-04-24T05:28:40;100301.86;;;2.13;71.27
74079;BME280;62437;51.544;-3.276;2023-04-24T05:31:06;100302.70;;;1.69;71.36
74079;BME280;62437;51.544;-3.276;2023-04-24T05:33:31;100302.28;;;2.28;71.11
74079;BME280;62437;51.544;-3.276;2023-04-24T05:35:57;100301.78;;;1.86;72.23
74079;BME280;62437;51.544;-3.276;2023-04-24T05:38:23;100298.04;;;1.83;72.77
74079;BME280;62437;51.544;-3.276;2023-04-24T05:40:49;100298.13;;;1.68;73.27
74079;BME280;62437;51.544;-3.276;2023-04-24T05:43:15;100297.01;;;2.16;73.25
74079;BME280;62437;51.544;-3.276;2023-04-24T05:45:40;100297.92;;;2.08;72.86
74079;BME280;62437;51.544;-3.276;2023-04-24T05:48:06;100301.56;;;2.31;73.19
74079;BME280;62437;51.544;-3.276;2023-04-24T05:50:32;100302.16;;;2.58;72.40
74079;BME280;62437;51.544;-3.276;2023-04-24T05:52:58;100304.42;;;3.03;71.50
74079;BME280;62437;51.544;-3.276;2023-04-24T05:55:24;100304.46;;;3.09;70.88
74079;BME280;62437;51.544;-3.276;2023-04-24T05:57:49;100303.07;;;2.47;72.47
74079;BME280;62437;51.544;-3.276;2023-04-24T06:00:16;100307.55;;;2.56;73.42
74079;BME280;62437;51.544;-3.276;2023-04-24T06:02:41;100312.01;;;2.35;73.13
74079;BME280;62437;51.544;-3.276;2023-04-24T06:05:07;100310.62;;;1.97;74.61
74079;BME280;62437;51.544;-3.276;2023-04-24T06:07:32;100316.76;;;1.83;74.94
74079;BME280;62437;51.544;-3.276;2023-04-24T06:09:58;100312.38;;;2.05;74.45
74079;BME280;62437;51.544;-3.276;2023-04-24T06:12:24;100309.81;;;2.29;74.52
74079;BME280;62437;51.544;-3.276;2023-04-24T06:14:50;100307.97;;;2.15;75.07
74079;BME280;62437;51.544;-3.276;2023-04-24T06:17:17;100307.02;;;1.96;74.33
74079;BME280;62437;51.544;-3.276;2023-04-24T06:19:41;100308.77;;;2.44;73.79
74079;BME280;62437;51.544;-3.276;2023-04-24T06:22:07;100307.51;;;2.26;73.68
74079;BME280;62437;51.544;-3.276;2023-04-24T06:24:34;100307.95;;;2.25;73.90
74079;BME280;62437;51.544;-3.276;2023-04-24T06:26:59;100306.72;;;2.52;74.31
74079;BME280;62437;51.544;-3.276;2023-04-24T06:29:24;100305.89;;;2.48;74.33
74079;BME280;62437;51.544;-3.276;2023-04-24T06:31:50;100305.20;;;2.33;74.49
74079;BME280;62437;51.544;-3.276;2023-04-24T06:34:16;100306.55;;;2.18;74.79
74079;BME280;62437;51.544;-3.276;2023-04-24T06:36:42;100308.35;;;2.50;74.76
74079;BME280;62437;51.544;-3.276;2023-04-24T06:39:09;100306.02;;;3.07;72.87
74079;BME280;62437;51.544;-3.276;2023-04-24T06:41:33;100310.61;;;3.25;73.47
74079;BME280;62437;51.544;-3.276;2023-04-24T06:43:59;100310.29;;;3.18;73.38
74079;BME280;62437;51.544;-3.276;2023-04-24T06:46:25;100314.45;;;3.46;73.21
74079;BME280;62437;51.544;-3.276;2023-04-24T06:48:51;100317.83;;;3.91;71.47
74079;BME280;62437;51.544;-3.276;2023-04-24T06:51:16;100315.35;;;3.37;71.46
74079;BME280;62437;51.544;-3.276;2023-04-24T06:53:42;100315.14;;;2.99;74.35
74079;BME280;62437;51.544;-3.276;2023-04-24T06:56:08;100317.68;;;3.22;75.06
74079;BME280;62437;51.544;-3.276;2023-04-24T06:58:34;100326.09;;;3.09;75.44
74079;BME280;62437;51.544;-3.276;2023-04-24T07:01:01;100332.95;;;2.99;75.60
74079;BME280;62437;51.544;-3.276;2023-04-24T07:03:25;100333.59;;;2.59;77.23
74079;BME280;62437;51.544;-3.276;2023-04-24T07:05:51;100325.47;;;1.96;80.44
74079;BME280;62437;51.544;-3.276;2023-04-24T07:08:17;100319.50;;;2.69;77.29
74079;BME280;62437;51.544;-3.276;2023-04-24T07:10:43;100318.02;;;3.29;74.02
74079;BME280;62437;51.544;-3.276;2023-04-24T07:13:08;100310.74;;;3.05;76.04
74079;BME280;62437;51.544;-3.276;2023-04-24T07:15:35;100314.66;;;2.60;77.24
74079;BME280;62437;51.544;-3.276;2023-04-24T07:18:00;100312.02;;;3.53;75.33
74079;BME280;62437;51.544;-3.276;2023-04-24T07:20:25;100317.77;;;4.71;71.12
74079;BME280;62437;51.544;-3.276;2023-04-24T07:22:51;100316.31;;;3.59;74.60
74079;BME280;62437;51.544;-3.276;2023-04-24T07:25:17;100323.46;;;4.00;71.74
74079;BME280;62437;51.544;-3.276;2023-04-24T07:27:43;100319.84;;;4.59;69.72
74079;BME280;62437;51.544;-3.276;2023-04-24T07:30:10;100327.04;;;3.94;71.50
74079;BME280;62437;51.544;-3.276;2023-04-24T07:32:34;100331.00;;;3.68;73.44
74079;BME280;62437;51.544;-3.276;2023-04-24T07:35:00;100344.07;;;4.03;72.84
74079;BME280;62437;51.544;-3.276;2023-04-24T07:37:26;100352.27;;;3.26;74.65
74079;BME280;62437;51.544;-3.276;2023-04-24T07:39:52;100349.08;;;4.63;71.07
74079;BME280;62437;51.544;-3.276;2023-04-24T07:42:17;100353.50;;;4.50;70.67
74079;BME280;62437;51.544;-3.276;2023-04-24T07:44:43;100352.30;;;3.75;74.08
74079;BME280;62437;51.544;-3.276;2023-04-24T07:47:09;100351.03;;;3.85;75.63
74079;BME280;62437;51.544;-3.276;2023-04-24T07:49:34;100348.51;;;4.70;71.54
74079;BME280;62437;51.544;-3.276;2023-04-24T07:52:01;100348.32;;;4.41;72.55
74079;BME280;62437;51.544;-3.276;2023-04-24T07:54:27;100348.22;;;4.53;72.44
74079;BME280;62437;51.544;-3.276;2023-04-24T07:56:52;100351.78;;;4.26;72.98
74079;BME280;62437;51.544;-3.276;2023-04-24T07:59:17;100352.91;;;4.36;72.88
74079;BME280;62437;51.544;-3.276;2023-04-24T08:01:45;100349.59;;;4.06;73.90
74079;BME280;62437;51.544;-3.276;2023-04-24T08:04:09;100345.75;;;4.16;72.72
74079;BME280;62437;51.544;-3.276;2023-04-24T08:06:35;100341.70;;;3.94;74.43
74079;BME280;62437;51.544;-3.276;2023-04-24T08:09:01;100335.15;;;3.53;75.25
74079;BME280;62437;51.544;-3.276;2023-04-24T08:11:26;100332.85;;;3.41;75.87
74079;BME280;62437;51.544;-3.276;2023-04-24T08:13:52;100331.84;;;3.90;74.92
74079;BME280;62437;51.544;-3.276;2023-04-24T08:16:18;100331.64;;;3.89;75.39
74079;BME280;62437;51.544;-3.276;2023-04-24T08:18:45;100328.03;;;3.47;77.57
74079;BME280;62437;51.544;-3.276;2023-04-24T08:21:09;100333.32;;;3.98;74.99
74079;BME280;62437;51.544;-3.276;2023-04-24T08:23:35;100332.75;;;4.68;72.10
74079;BME280;62437;51.544;-3.276;2023-04-24T08:26:01;100337.76;;;5.17;69.95
74079;BME280;62437;51.544;-3.276;2023-04-24T08:28:26;100346.15;;;4.21;72.80
74079;BME280;62437;51.544;-3.276;2023-04-24T08:30:54;100351.48;;;4.23;73.93
74079;BME280;62437;51.544;-3.276;2023-04-24T08:33:18;100350.89;;;4.62;72.19
74079;BME280;62437;51.544;-3.276;2023-04-24T08:35:45;100353.27;;;4.59;73.53
74079;BME280;62437;51.544;-3.276;2023-04-24T08:38:09;100356.46;;;4.71;73.17
74079;BME280;62437;51.544;-3.276;2023-04-24T08:40:37;100359.41;;;4.51;72.44
74079;BME280;62437;51.544;-3.276;2023-04-24T08:43:03;100356.14;;;5.77;67.68
74079;BME280;62437;51.544;-3.276;2023-04-24T08:45:27;100365.42;;;4.36;72.29
74079;BME280;62437;51.544;-3.276;2023-04-24T08:47:53;100368.32;;;4.40;73.67
74079;BME280;62437;51.544;-3.276;2023-04-24T08:50:18;100365.08;;;4.30;73.64
74079;BME280;62437;51.544;-3.276;2023-04-24T08:52:44;100365.77;;;3.99;74.17
74079;BME280;62437;51.544;-3.276;2023-04-24T08:55:12;100365.22;;;4.36;73.71
74079;BME280;62437;51.544;-3.276;2023-04-24T08:57:36;100352.94;;;5.85;69.31
74079;BME280;62437;51.544;-3.276;2023-04-24T09:00:02;100357.86;;;4.66;71.82
74079;BME280;62437;51.544;-3.276;2023-04-24T09:02:27;100358.23;;;6.46;66.53
74079;BME280;62437;51.544;-3.276;2023-04-24T09:04:56;100363.23;;;4.67;71.29
74079;BME280;62437;51.544;-3.276;2023-04-24T09:07:20;100364.69;;;3.75;74.14
74079;BME280;62437;51.544;-3.276;2023-04-24T09:09:44;100367.53;;;4.24;74.48
74079;BME280;62437;51.544;-3.276;2023-04-24T09:12:10;100364.57;;;4.43;73.54
74079;BME280;62437;51.544;-3.276;2023-04-24T09:14:36;100363.99;;;4.45;74.30
74079;BME280;62437;51.544;-3.276;2023-04-24T09:17:01;100358.66;;;5.68;70.66
74079;BME280;62437;51.544;-3.276;2023-04-24T09:19:27;100362.46;;;5.39;70.76
74079;BME280;62437;51.544;-3.276;2023-04-24T09:21:53;100367.51;;;4.77;72.60
74079;BME280;62437;51.544;-3.276;2023-04-24T09:24:20;100373.19;;;4.43;73.65
74079;BME280;62437;51.544;-3.276;2023-04-24T09:26:45;100380.14;;;5.20;72.36
74079;BME280;62437;51.544;-3.276;2023-04-24T09:29:15;100388.11;;;5.16;71.76
74079;BME280;62437;51.544;-3.276;2023-04-24T09:31:37;100391.49;;;4.87;72.75
74079;BME280;62437;51.544;-3.276;2023-04-24T09:34:04;100388.84;;;4.42;73.68
74079;BME280;62437;51.544;-3.276;2023-04-24T09:36:29;100391.43;;;4.54;74.02
74079;BME280;62437;51.544;-3.276;2023-04-24T09:38:57;100397.97;;;4.78;73.03
74079;BME280;62437;51.544;-3.276;2023-04-24T09:41:20;100402.15;;;4.33;74.16
74079;BME280;62437;51.544;-3.276;2023-04-24T09:43:45;100402.83;;;4.26;74.54
74079;BME280;62437;51.544;-3.276;2023-04-24T09:46:10;100401.98;;;3.98;75.21
74079;BME280;62437;51.544;-3.276;2023-04-24T09:48:38;100404.34;;;4.27;75.47
74079;BME280;62437;51.544;-3.276;2023-04-24T09:51:04;100408.10;;;4.23;75.99
74079;BME280;62437;51.544;-3.276;2023-04-24T09:53:27;100410.86;;;3.87;77.33
74079;BME280;62437;51.544;-3.276;2023-04-24T09:55:53;100413.63;;;3.61;77.36
74079;BME280;62437;51.544;-3.276;2023-04-24T09:58:25;100415.24;;;4.06;76.60
74079;BME280;62437;51.544;-3.276;2023-04-24T10:00:46;100418.78;;;4.17;75.04
74079;BME280;62437;51.544;-3.276;2023-04-24T10:03:10;100418.03;;;4.74;74.32
74079;BME280;62437;51.544;-3.276;2023-04-24T10:05:37;100416.71;;;4.68;74.34
74079;BME280;62437;51.544;-3.276;2023-04-24T10:08:04;100414.43;;;4.94;73.91
74079;BME280;62437;51.544;-3.276;2023-04-24T10:10:28;100415.92;;;4.13;74.21
74079;BME280;62437;51.544;-3.276;2023-04-24T10:12:54;100413.92;;;4.28;74.24
74079;BME280;62437;51.544;-3.276;2023-04-24T10:15:20;100413.42;;;3.76;74.86
74079;BME280;62437;51.544;-3.276;2023-04-24T10:17:48;100414.56;;;3.70;77.11
74079;BME280;62437;51.544;-3.276;2023-04-24T10:20:11;100410.44;;;3.64;77.52
74079;BME280;62437;51.544;-3.276;2023-04-24T10:22:37;100406.19;;;3.55;78.14
74079;BME280;62437;51.544;-3.276;2023-04-24T10:25:04;100402.31;;;3.85;77.70
74079;BME280;62437;51.544;-3.276;2023-04-24T10:27:31;100393.74;;;4.07;76.55
74079;BME280;62437;51.544;-3.276;2023-04-24T10:29:54;100387.45;;;4.74;75.36
74079;BME280;62437;51.544;-3.276;2023-04-24T10:32:19;100379.32;;;4.85;75.76
74079;BME280;62437;51.544;-3.276;2023-04-24T10:34:45;100377.26;;;5.62;73.43
74079;BME280;62437;51.544;-3.276;2023-04-24T10:37:11;100388.51;;;4.67;74.01
74079;BME280;62437;51.544;-3.276;2023-04-24T10:39:37;100395.43;;;4.86;75.42
74079;BME280;62437;51.544;-3.276;2023-04-24T10:44:37;100381.22;;;5.95;70.63
74079;BME280;62437;51.544;-3.276;2023-04-24T10:46:55;100378.55;;;5.56;71.64
74079;BME280;62437;51.544;-3.276;2023-04-24T10:49:29;100382.69;;;6.25;68.95
74079;BME280;62437;51.544;-3.276;2023-04-24T10:51:47;100380.77;;;7.42;64.60
74079;BME280;62437;51.544;-3.276;2023-04-24T10:54:22;100380.37;;;8.72;58.56
74079;BME280;62437;51.544;-3.276;2023-04-24T10:56:37;100378.86;;;8.14;60.95
74079;BME280;62437;51.544;-3.276;2023-04-24T10:59:07;100384.30;;;7.51;65.60
74079;BME280;62437;51.544;-3.276;2023-04-24T11:01:30;100382.93;;;7.71;62.97
74079;BME280;62437;51.544;-3.276;2023-04-24T11:03:56;100385.17;;;6.94;66.76
74079;BME280;62437;51.544;-3.276;2023-04-24T11:06:30;100387.30;;;7.37;66.21
74079;BME280;62437;51.544;-3.276;2023-04-24T11:08:46;100388.50;;;8.11;62.72
74079;BME280;62437;51.544;-3.276;2023-04-24T11:11:12;100391.58;;;8.06;63.81
74079;BME280;62437;51.544;-3.276;2023-04-24T11:16:13;100396.90;;;8.82;59.66
74079;BME280;62437;51.544;-3.276;2023-04-24T11:18:37;100400.00;;;8.20;64.28
74079;BME280;62437;51.544;-3.276;2023-04-24T11:20:55;100401.09;;;9.00;58.01
74079;BME280;62437;51.544;-3.276;2023-04-24T11:23:20;100404.66;;;6.09;70.03
74079;BME280;62437;51.544;-3.276;2023-04-24T11:28:15;100403.29;;;5.51;70.53
74079;BME280;62437;51.544;-3.276;2023-04-24T11:30:40;100406.37;;;5.42;73.51
74079;BME280;62437;51.544;-3.276;2023-04-24T11:33:04;100405.55;;;6.54;68.69
74079;BME280;62437;51.544;-3.276;2023-04-24T11:35:29;100407.98;;;5.74;70.70
74079;BME280;62437;51.544;-3.276;2023-04-24T11:37:54;100412.80;;;5.48;69.23
74079;BME280;62437;51.544;-3.276;2023-04-24T11:40:22;100409.88;;;5.82;71.72
74079;BME280;62437;51.544;-3.276;2023-04-24T11:42:48;100412.12;;;5.92;71.30
74079;BME280;62437;51.544;-3.276;2023-04-24T11:45:13;100413.37;;;5.50;70.50
74079;BME280;62437;51.544;-3.276;2023-04-24T11:47:37;100412.24;;;6.25;69.43
74079;BME280;62437;51.544;-3.276;2023-04-24T11:50:04;100410.05;;;5.79;70.74
74079;BME280;62437;51.544;-3.276;2023-04-24T11:52:29;100410.09;;;6.21;69.31
74079;BME280;62437;51.544;-3.276;2023-04-24T11:54:54;100401.40;;;5.26;71.87
74079;BME280;62437;51.544;-3.276;2023-04-24T11:57:20;100399.88;;;5.88;72.38
74079;BME280;62437;51.544;-3.276;2023-04-24T11:59:47;100396.90;;;8.16;62.93
74079;BME280;62437;51.544;-3.276;2023-04-24T12:02:21;100410.32;;;5.34;69.84
74079;BME280;62437;51.544;-3.276;2023-04-24T12:04:42;100414.38;;;4.85;72.91
74079;BME280;62437;51.544;-3.276;2023-04-24T12:07:03;100415.90;;;4.83;71.93
74079;BME280;62437;51.544;-3.276;2023-04-24T12:09:28;100418.33;;;4.97;72.29
74079;BME280;62437;51.544;-3.276;2023-04-24T12:11:55;100418.38;;;4.84;74.01
74079;BME280;62437;51.544;-3.276;2023-04-24T12:14:20;100413.86;;;6.59;68.16
74079;BME280;62437;51.544;-3.276;2023-04-24T12:16:47;100411.77;;;6.73;68.54
74079;BME280;62437;51.544;-3.276;2023-04-24T12:19:18;100412.90;;;6.31;68.62
74079;BME280;62437;51.544;-3.276;2023-04-24T12:21:37;100414.94;;;5.32;71.15
74079;BME280;62437;51.544;-3.276;2023-04-24T12:24:06;100406.16;;;5.82;69.97
74079;BME280;62437;51.544;-3.276;2023-04-24T12:26:28;100407.63;;;4.96;73.55
74079;BME280;62437;51.544;-3.276;2023-04-24T12:28:54;100407.23;;;5.06;74.61
74079;BME280;62437;51.544;-3.276;2023-04-24T12:31:21;100409.94;;;5.38;71.69
74079;BME280;62437;51.544;-3.276;2023-04-24T12:33:45;100408.33;;;6.09;71.80
74079;BME280;62437;51.544;-3.276;2023-04-24T12:36:11;100410.18;;;6.50;69.44
74079;BME280;62437;51.544;-3.276;2023-04-24T12:38:37;100412.81;;;6.47;71.12
74079;BME280;62437;51.544;-3.276;2023-04-24T12:41:04;100417.21;;;6.98;68.94
74079;BME280;62437;51.544;-3.276;2023-04-24T12:43:28;100420.66;;;6.65;67.86
74079;BME280;62437;51.544;-3.276;2023-04-24T12:45:54;100419.69;;;6.45;65.60
74079;BME280;62437;51.544;-3.276;2023-04-24T12:48:19;100422.86;;;5.69;64.31